Aviation Digital Data Service (ADDS)

Output produced by METARs form (1133 UTC 21 November 2018)
found at http://www.aviationweather.gov/metar/data/
 
LHUD 211115Z 18005KT 9999 FEW006 BKN015 06/04 Q1017
LHUD 211045Z 20005KT 9999 BKN013 06/04 Q1017
LHUD 211015Z 18004KT 9999 BKN015 06/04 Q1017
LHUD 210945Z 18005KT 9999 BKN015 06/04 Q1017 REDZ
LHUD 210915Z 19005KT 9999 BKN016 05/04 Q1017 REDZ
LHUD 210845Z 17005KT 9999 -DZ FEW004 BKN016 05/04 Q1017
LHUD 210815Z 14004KT 9999 -RADZ FEW004 BKN020 05/04 Q1016
LHUD 210745Z 12003KT 9000 -RADZ OVC016 05/04 Q1016
LHUD 210715Z 14002KT 5000 -DZ BKN013 OVC020 04/03 Q1016
LHUD 210645Z 15003KT 8000 FEW005 BKN013 04/03 Q1016
LHUD 210615Z 15003KT 8000 FEW005 BKN013 04/03 Q1016
LHUD 210545Z 15004KT 5000 BR BKN013 04/03 Q1016 REDZ